createdAt,value
2023-02-18T00:00:34.871Z,23.67
2023-02-18T00:03:02.443Z,28.02
2023-02-18T00:05:30.987Z,33.15
2023-02-18T00:07:58.363Z,29.13
2023-02-18T00:10:25.995Z,34.33
2023-02-18T00:12:53.456Z,34.78
2023-02-18T00:15:22.121Z,23.10
2023-02-18T00:17:50.479Z,23.33
2023-02-18T00:20:17.738Z,47.25
2023-02-18T00:22:45.239Z,27.75
2023-02-18T00:25:12.487Z,23.15
2023-02-18T00:27:39.853Z,25.27
2023-02-18T00:30:08.162Z,30.20
2023-02-18T00:32:37.595Z,32.28
2023-02-18T00:35:05.546Z,32.58
2023-02-18T00:37:35.311Z,38.40
2023-02-18T00:40:03.220Z,25.27
2023-02-18T00:42:33.280Z,32.10
2023-02-18T00:45:00.611Z,21.27
2023-02-18T00:47:27.964Z,51.05
2023-02-18T00:49:55.311Z,36.88
2023-02-18T00:52:22.693Z,34.03
2023-02-18T00:54:50.556Z,28.67
2023-02-18T00:57:17.807Z,28.15
2023-02-18T00:59:45.669Z,28.00
2023-02-18T01:02:12.888Z,25.05
2023-02-18T01:04:40.201Z,28.02
2023-02-18T01:07:10.308Z,30.23
2023-02-18T01:09:37.864Z,33.83
2023-02-18T01:12:05.356Z,33.33
2023-02-18T01:14:32.631Z,29.20
2023-02-18T01:16:59.916Z,23.75
2023-02-18T01:19:27.146Z,35.22
2023-02-18T01:21:54.441Z,37.30
2023-02-18T01:24:21.840Z,30.17
2023-02-18T01:26:49.311Z,34.47
2023-02-18T01:29:16.634Z,26.48
2023-02-18T01:31:43.979Z,31.70
2023-02-18T01:34:11.254Z,35.13
2023-02-18T01:36:40.192Z,34.22
2023-02-18T01:39:09.312Z,33.95
2023-02-18T01:41:36.669Z,33.30
2023-02-18T01:44:20.701Z,34.45
2023-02-18T01:46:49.205Z,31.42
2023-02-18T01:49:27.258Z,30.77
2023-02-18T01:52:02.888Z,37.58
2023-02-18T01:54:35.703Z,35.35
2023-02-18T01:57:13.905Z,25.13
2023-02-18T02:00:08.866Z,28.50
2023-02-18T02:02:39.431Z,28.17
2023-02-18T02:05:06.871Z,31.08
2023-02-18T02:07:34.506Z,25.40
2023-02-18T02:10:01.736Z,22.25
2023-02-18T02:12:49.791Z,32.40
2023-02-18T02:15:41.896Z,33.50
2023-02-18T02:18:28.816Z,33.70
2023-02-18T02:21:24.233Z,28.67
2023-02-18T02:24:12.492Z,36.95
2023-02-18T02:27:12.381Z,28.85
2023-02-18T02:29:49.486Z,31.40
2023-02-18T02:32:44.365Z,26.23
2023-02-18T02:35:27.714Z,21.77
2023-02-18T02:38:05.153Z,23.15
2023-02-18T02:40:43.039Z,38.78
2023-02-18T02:43:16.516Z,37.08
2023-02-18T02:45:59.993Z,40.42
2023-02-18T02:48:27.114Z,44.95
2023-02-18T02:51:02.067Z,34.35
2023-02-18T02:53:31.391Z,34.00
2023-02-18T02:55:58.663Z,36.65
2023-02-18T02:58:25.891Z,37.13
2023-02-18T03:00:58.953Z,34.58
2023-02-18T03:03:42.439Z,39.03
2023-02-18T03:06:40.945Z,47.17
2023-02-18T03:09:23.915Z,41.30
2023-02-18T03:12:01.723Z,36.58
2023-02-18T03:14:32.645Z,31.23
2023-02-18T03:17:02.998Z,47.17
2023-02-18T03:19:34.514Z,36.37
2023-02-18T03:22:17.105Z,43.83
2023-02-18T03:24:46.751Z,48.42
2023-02-18T03:27:32.875Z,40.60
2023-02-18T03:30:13.869Z,43.92
2023-02-18T03:32:41.682Z,39.67
2023-02-18T03:35:11.597Z,43.50
2023-02-18T03:37:43.385Z,33.65
2023-02-18T03:40:11.077Z,35.47
2023-02-18T03:42:38.700Z,39.15
2023-02-18T03:45:06.193Z,47.20
2023-02-18T03:47:33.639Z,52.17
2023-02-18T03:50:00.875Z,44.10
2023-02-18T03:52:28.136Z,32.50
2023-02-18T03:54:55.333Z,39.10
2023-02-18T03:57:22.619Z,48.97
2023-02-18T03:59:50.259Z,50.42
2023-02-18T04:02:17.532Z,52.53
2023-02-18T04:04:44.782Z,44.70
2023-02-18T04:07:12.010Z,33.17
2023-02-18T04:09:44.463Z,41.70
2023-02-18T04:12:11.791Z,41.83
2023-02-18T04:14:38.981Z,41.22
2023-02-18T04:17:06.278Z,41.33
2023-02-18T04:19:33.654Z,52.40
2023-02-18T04:22:01.963Z,49.20
2023-02-18T04:24:29.312Z,54.35
2023-02-18T04:26:56.508Z,52.72
2023-02-18T04:29:24.019Z,44.88
2023-02-18T04:31:51.252Z,39.70
2023-02-18T04:34:18.651Z,45.53
2023-02-18T04:36:46.121Z,49.08
2023-02-18T04:39:13.388Z,48.80
2023-02-18T04:41:40.829Z,39.17
2023-02-18T04:44:09.911Z,46.80
2023-02-18T04:46:37.367Z,34.25
2023-02-18T04:49:05.990Z,45.88
2023-02-18T04:51:33.258Z,60.15
2023-02-18T04:54:00.958Z,56.55
2023-02-18T04:56:28.233Z,45.67
2023-02-18T04:58:55.770Z,48.20
2023-02-18T05:01:23.104Z,71.47
2023-02-18T05:03:50.402Z,46.38
2023-02-18T05:06:17.711Z,74.30
2023-02-18T05:08:45.177Z,59.13
2023-02-18T05:11:14.777Z,47.83
2023-02-18T05:13:44.482Z,50.63
2023-02-18T05:16:16.846Z,65.72
2023-02-18T05:18:44.153Z,57.80
2023-02-18T05:21:12.208Z,48.83
2023-02-18T05:23:39.404Z,55.38
2023-02-18T05:26:06.870Z,87.30
2023-02-18T05:28:34.518Z,57.05
2023-02-18T05:31:01.818Z,58.97
2023-02-18T05:33:35.041Z,44.88
2023-02-18T05:36:02.554Z,48.40
2023-02-18T05:38:30.000Z,61.88
2023-02-18T05:40:57.249Z,66.40
2023-02-18T05:43:24.495Z,69.82
2023-02-18T05:45:51.817Z,60.17
2023-02-18T05:48:19.256Z,46.05
2023-02-18T05:50:46.514Z,100.40
2023-02-18T05:53:16.145Z,62.63
2023-02-18T05:55:44.749Z,58.47
2023-02-18T05:58:13.702Z,56.90
2023-02-18T06:00:41.045Z,51.90
2023-02-18T06:03:08.432Z,51.08
2023-02-18T06:05:35.824Z,37.20
2023-02-18T06:08:03.267Z,48.42
2023-02-18T06:10:30.789Z,31.80
2023-02-18T06:13:02.461Z,34.80
2023-02-18T06:15:29.861Z,37.65
2023-02-18T06:17:58.253Z,43.80
2023-02-18T06:20:25.518Z,28.40
2023-02-18T06:22:52.729Z,28.08
2023-02-18T06:25:19.958Z,31.25
2023-02-18T06:27:51.842Z,28.73
2023-02-18T06:30:19.154Z,37.05
2023-02-18T06:32:46.490Z,28.85
2023-02-18T06:35:14.253Z,28.33
2023-02-18T06:37:41.513Z,29.92
2023-02-18T06:40:09.116Z,25.88
2023-02-18T06:42:36.784Z,18.27
2023-02-18T06:45:04.312Z,24.10
2023-02-18T06:47:31.701Z,23.05
2023-02-18T06:49:58.915Z,26.33
2023-02-18T06:52:26.289Z,17.23
2023-02-18T06:54:53.555Z,17.30
2023-02-18T06:57:20.743Z,19.90
2023-02-18T06:59:48.299Z,13.15
2023-02-18T07:02:15.611Z,21.45
2023-02-18T07:04:42.877Z,24.38
2023-02-18T07:07:10.384Z,18.38
2023-02-18T07:09:37.668Z,15.80
2023-02-18T07:12:06.758Z,21.98
2023-02-18T07:14:33.992Z,19.58
2023-02-18T07:17:01.201Z,16.42
2023-02-18T07:19:29.063Z,15.90
2023-02-18T07:21:57.924Z,18.17
2023-02-18T07:24:25.246Z,21.95
2023-02-18T07:29:56.253Z,12.38
2023-02-18T07:32:26.858Z,20.45
2023-02-18T07:34:54.141Z,18.83
2023-02-18T07:37:23.684Z,19.27
2023-02-18T07:39:54.432Z,24.80
2023-02-18T07:42:21.937Z,19.25
2023-02-18T07:44:49.444Z,17.95
2023-02-18T07:47:19.935Z,27.65
2023-02-18T07:49:47.499Z,24.63
2023-02-18T07:52:17.474Z,17.65
2023-02-18T07:54:48.463Z,15.45
2023-02-18T07:57:16.023Z,20.33
2023-02-18T07:59:43.383Z,19.95
2023-02-18T08:02:21.788Z,23.48
2023-02-18T08:04:49.272Z,13.73
2023-02-18T08:07:17.615Z,19.23
2023-02-18T08:09:45.028Z,24.98
2023-02-18T08:12:12.479Z,21.05
2023-02-18T08:17:46.972Z,23.45
2023-02-18T08:20:15.910Z,29.25
2023-02-18T08:22:43.597Z,20.38
2023-02-18T08:25:23.960Z,26.63
2023-02-18T08:27:58.645Z,21.60
2023-02-18T08:30:26.824Z,26.83
2023-02-18T08:32:54.483Z,26.00
2023-02-18T08:35:22.138Z,29.00
2023-02-18T08:37:53.227Z,25.58
2023-02-18T08:40:23.774Z,27.33
2023-02-18T08:42:52.119Z,25.05
2023-02-18T08:45:19.514Z,34.70
2023-02-18T08:48:18.754Z,31.05
2023-02-18T08:50:35.161Z,29.42
2023-02-18T08:53:03.664Z,31.60
2023-02-18T08:55:33.068Z,32.97
2023-02-18T08:58:01.200Z,31.65
2023-02-18T09:00:29.768Z,32.17
2023-02-18T09:02:57.565Z,37.60
2023-02-18T09:05:29.901Z,41.33
2023-02-18T09:07:58.362Z,33.85
2023-02-18T09:10:25.793Z,43.30
2023-02-18T09:12:56.214Z,32.40
2023-02-18T09:15:24.171Z,36.92
2023-02-18T09:17:56.383Z,30.60
2023-02-18T09:20:23.900Z,27.13
2023-02-18T09:22:51.277Z,32.78
2023-02-18T09:25:19.037Z,28.83
2023-02-18T09:27:46.464Z,39.00
2023-02-18T09:30:15.268Z,28.38
2023-02-18T09:32:43.900Z,31.75
2023-02-18T09:35:13.265Z,33.30
2023-02-18T09:37:41.913Z,31.60
2023-02-18T09:40:16.582Z,27.38
2023-02-18T09:42:45.336Z,25.85
2023-02-18T09:45:13.600Z,29.65
2023-02-18T09:47:45.138Z,30.95
2023-02-18T09:50:22.114Z,36.65
2023-02-18T09:52:49.883Z,22.60
2023-02-18T09:55:33.845Z,40.03
2023-02-18T09:58:07.427Z,29.80
2023-02-18T10:01:05.350Z,36.70
2023-02-18T10:03:44.530Z,26.95
2023-02-18T10:06:34.161Z,34.97
2023-02-18T10:09:12.056Z,33.88
2023-02-18T10:11:41.867Z,33.67
2023-02-18T10:14:15.891Z,25.88
2023-02-18T10:16:47.249Z,36.45
2023-02-18T10:19:35.945Z,32.03
2023-02-18T10:22:09.960Z,29.37
2023-02-18T10:28:11.885Z,28.70
2023-02-18T10:31:09.789Z,30.98
2023-02-18T10:34:05.358Z,39.10
2023-02-18T10:36:46.293Z,37.90
2023-02-18T10:40:01.310Z,34.60
2023-02-18T10:43:12.864Z,35.67
2023-02-18T10:50:00.889Z,29.10
2023-02-18T10:55:59.386Z,30.48
2023-02-18T10:58:45.688Z,32.97
2023-02-18T11:01:32.367Z,28.98
2023-02-18T11:06:44.837Z,30.88
2023-02-18T11:09:35.731Z,37.97
2023-02-18T11:12:31.833Z,39.20
2023-02-18T11:15:14.658Z,39.67
2023-02-18T11:17:47.055Z,42.10
2023-02-18T11:20:23.762Z,33.35
2023-02-18T11:22:51.566Z,41.08
2023-02-18T11:25:27.061Z,43.78
2023-02-18T11:28:02.656Z,40.00
2023-02-18T11:30:38.240Z,39.58
2023-02-18T11:33:21.980Z,39.67
2023-02-18T11:35:53.751Z,33.95
2023-02-18T11:38:24.498Z,40.67
2023-02-18T11:40:56.650Z,45.00
2023-02-18T11:43:24.365Z,31.30
2023-02-18T11:46:11.500Z,37.67
2023-02-18T11:48:41.702Z,25.42
2023-02-18T11:51:28.114Z,29.60
2023-02-18T11:54:06.528Z,28.42
2023-02-18T11:56:35.805Z,29.83
2023-02-18T11:59:03.770Z,26.17
2023-02-18T12:01:45.640Z,28.83
2023-02-18T12:04:21.626Z,28.15
2023-02-18T12:06:53.671Z,32.63
2023-02-18T12:09:35.332Z,31.05
2023-02-18T12:12:19.793Z,35.05
2023-02-18T12:14:54.722Z,30.83
2023-02-18T12:17:46.859Z,39.75
2023-02-18T12:20:52.488Z,36.10
2023-02-18T12:23:35.656Z,34.25
2023-02-18T12:26:28.597Z,40.90
2023-02-18T12:29:20.626Z,40.15
2023-02-18T12:31:53.306Z,50.40
2023-02-18T12:34:27.753Z,43.03
2023-02-18T12:37:03.001Z,42.05
2023-02-18T12:39:58.489Z,38.15
2023-02-18T12:42:45.734Z,39.47
2023-02-18T12:45:36.414Z,41.03
2023-02-18T12:48:11.848Z,41.83
2023-02-18T12:51:18.090Z,37.33
2023-02-18T12:54:11.383Z,44.80
2023-02-18T12:56:41.412Z,48.08
2023-02-18T12:59:27.468Z,50.42
2023-02-18T13:02:24.182Z,47.13
2023-02-18T13:05:40.721Z,47.83
2023-02-18T13:08:30.134Z,46.00
2023-02-18T13:11:19.540Z,43.20
2023-02-18T13:14:24.555Z,50.28
2023-02-18T13:16:53.601Z,50.90
2023-02-18T13:19:45.506Z,50.05
2023-02-18T13:22:13.115Z,48.10
2023-02-18T13:24:42.223Z,55.13
2023-02-18T13:27:30.701Z,44.67
2023-02-18T13:30:40.178Z,51.05
2023-02-18T13:33:11.340Z,49.55
2023-02-18T13:35:55.362Z,53.92
2023-02-18T13:38:56.590Z,51.00
2023-02-18T13:41:24.101Z,43.80
2023-02-18T13:43:54.906Z,46.45
2023-02-18T13:46:25.967Z,54.00
2023-02-18T13:49:07.036Z,54.28
2023-02-18T13:51:39.443Z,45.47
2023-02-18T13:54:13.286Z,45.25
2023-02-18T13:56:46.865Z,45.25
2023-02-18T13:59:32.388Z,46.92
2023-02-18T14:02:30.702Z,41.72
2023-02-18T14:05:18.854Z,51.03
2023-02-18T14:07:51.025Z,41.05
2023-02-18T14:10:28.890Z,39.67
2023-02-18T14:12:57.404Z,35.83
2023-02-18T14:15:24.993Z,38.92
2023-02-18T14:17:59.130Z,38.90
2023-02-18T14:20:38.374Z,37.97
2023-02-18T14:23:18.332Z,31.55
2023-02-18T14:25:53.727Z,33.15
2023-02-18T14:28:34.487Z,31.90
2023-02-18T14:31:14.387Z,43.42
2023-02-18T14:34:00.201Z,38.47
2023-02-18T14:36:39.646Z,37.15
2023-02-18T14:39:36.236Z,28.70
2023-02-18T14:42:09.743Z,29.63
2023-02-18T14:44:37.506Z,26.77
2023-02-18T14:47:41.821Z,29.27
2023-02-18T14:50:13.669Z,29.48
2023-02-18T14:52:44.303Z,25.55
2023-02-18T14:55:20.722Z,26.35
2023-02-18T14:57:56.227Z,25.98
2023-02-18T15:00:26.230Z,29.58
2023-02-18T15:02:54.560Z,32.28
2023-02-18T15:05:27.648Z,28.17
2023-02-18T15:08:06.024Z,21.58
2023-02-18T15:10:53.739Z,29.52
2023-02-18T15:13:27.938Z,25.08
2023-02-18T15:15:57.901Z,32.10
2023-02-18T15:18:41.330Z,31.60
2023-02-18T15:21:10.352Z,24.95
2023-02-18T15:23:40.815Z,25.83
2023-02-18T15:26:12.140Z,24.67
2023-02-18T15:28:42.810Z,26.48
2023-02-18T15:31:14.030Z,28.13
2023-02-18T15:33:43.557Z,31.98
2023-02-18T15:36:13.806Z,24.20
2023-02-18T15:38:44.496Z,26.77
2023-02-18T15:41:13.573Z,19.88
2023-02-18T15:43:54.310Z,21.02
2023-02-18T15:46:23.089Z,27.00
2023-02-18T15:48:53.497Z,31.48
2023-02-18T15:51:25.239Z,23.15
2023-02-18T15:53:54.606Z,29.50
2023-02-18T15:56:39.562Z,20.88
2023-02-18T15:59:13.986Z,18.38
2023-02-18T16:01:41.510Z,21.83
2023-02-18T16:04:09.021Z,19.02
2023-02-18T16:06:38.145Z,18.52
2023-02-18T16:09:25.475Z,17.50
2023-02-18T16:11:59.613Z,19.42
2023-02-18T16:14:47.728Z,18.17
2023-02-18T16:17:20.329Z,13.80
2023-02-18T16:20:05.698Z,11.50
2023-02-18T16:22:34.383Z,14.82
2023-02-18T16:25:14.629Z,10.88
2023-02-18T16:27:58.252Z,19.25
2023-02-18T16:30:30.900Z,13.77
2023-02-18T16:32:59.176Z,13.25
2023-02-18T16:35:30.700Z,15.27
2023-02-18T16:38:00.287Z,18.63
2023-02-18T16:40:35.311Z,12.40
2023-02-18T16:43:10.813Z,13.57
2023-02-18T16:45:42.887Z,12.57
2023-02-18T16:48:30.655Z,7.28
2023-02-18T16:51:00.034Z,9.45
2023-02-18T16:53:27.616Z,7.22
2023-02-18T16:55:55.055Z,6.97
2023-02-18T16:58:22.912Z,9.38
2023-02-18T17:00:52.121Z,6.20
2023-02-18T17:03:20.728Z,8.80
2023-02-18T17:05:48.259Z,9.43
2023-02-18T17:08:18.654Z,6.28
2023-02-18T17:10:48.326Z,12.70
2023-02-18T17:13:20.542Z,9.82
2023-02-18T17:15:50.957Z,7.43
2023-02-18T17:18:18.552Z,8.55
2023-02-18T17:20:48.482Z,6.93
2023-02-18T17:23:16.787Z,10.55
2023-02-18T17:25:51.234Z,7.50
2023-02-18T17:28:21.737Z,10.57
2023-02-18T17:30:56.943Z,6.80
2023-02-18T17:33:25.236Z,6.10
2023-02-18T17:35:52.737Z,8.48
2023-02-18T17:38:20.317Z,7.43
2023-02-18T17:40:50.162Z,6.15
2023-02-18T17:43:17.925Z,8.20
2023-02-18T17:45:50.784Z,5.35
2023-02-18T17:48:19.000Z,3.95
2023-02-18T17:50:46.644Z,4.78
2023-02-18T17:53:15.095Z,10.15
2023-02-18T17:55:43.028Z,10.85
2023-02-18T17:58:11.143Z,8.48
2023-02-18T18:00:48.760Z,8.48
2023-02-18T18:03:17.532Z,6.53
2023-02-18T18:05:48.980Z,10.13
2023-02-18T18:08:20.770Z,9.45
2023-02-18T18:10:56.117Z,6.90
2023-02-18T18:13:32.328Z,6.63
2023-02-18T18:16:00.295Z,4.07
2023-02-18T18:18:27.738Z,8.02
2023-02-18T18:20:58.810Z,6.50
2023-02-18T18:23:26.391Z,7.03
2023-02-18T18:25:54.988Z,5.38
2023-02-18T18:28:25.094Z,7.45
2023-02-18T18:30:53.741Z,7.93
2023-02-18T18:33:30.222Z,15.00
2023-02-18T18:35:58.350Z,8.68
2023-02-18T18:38:26.626Z,6.15
2023-02-18T18:40:54.289Z,7.80
2023-02-18T18:43:32.200Z,9.18
2023-02-18T18:46:00.683Z,10.43
2023-02-18T18:50:59.778Z,9.75
2023-02-18T18:53:31.924Z,12.32
2023-02-18T18:56:01.405Z,6.45
2023-02-18T18:58:28.898Z,6.93
2023-02-18T19:00:58.462Z,6.60
2023-02-18T19:03:26.526Z,7.05
2023-02-18T19:05:54.503Z,5.57
2023-02-18T19:08:22.292Z,7.00
2023-02-18T19:10:55.207Z,5.82
2023-02-18T19:13:24.847Z,6.47
2023-02-18T19:15:59.396Z,6.75
2023-02-18T19:18:27.925Z,4.22
2023-02-18T19:20:55.680Z,6.35
2023-02-18T19:23:24.564Z,4.75
2023-02-18T19:25:52.114Z,4.50
2023-02-18T19:28:20.786Z,5.25
2023-02-18T19:30:48.653Z,5.78
2023-02-18T19:33:16.186Z,9.15
2023-02-18T19:35:43.961Z,7.30
2023-02-18T19:38:14.212Z,6.13
2023-02-18T19:40:42.081Z,9.18
2023-02-18T19:43:09.788Z,4.18
2023-02-18T19:45:42.826Z,2.92
2023-02-18T19:48:11.489Z,7.97
2023-02-18T19:50:42.109Z,3.92
2023-02-18T19:53:12.541Z,5.15
2023-02-18T19:55:39.986Z,5.30
2023-02-18T19:58:07.831Z,9.18
2023-02-18T20:00:35.445Z,5.70
2023-02-18T20:03:04.168Z,11.05
2023-02-18T20:05:31.620Z,7.28
2023-02-18T20:07:59.909Z,7.53
2023-02-18T20:10:29.310Z,5.22
2023-02-18T20:12:56.821Z,7.93
2023-02-18T20:15:24.222Z,5.45
2023-02-18T20:17:54.499Z,8.43
2023-02-18T20:20:22.156Z,6.20
2023-02-18T20:22:49.702Z,9.43
2023-02-18T20:25:17.732Z,4.15
2023-02-18T20:27:59.941Z,8.63
2023-02-18T20:30:31.910Z,7.32
2023-02-18T20:33:00.590Z,9.02
2023-02-18T20:35:27.966Z,4.75
2023-02-18T20:37:55.528Z,12.80
2023-02-18T20:40:23.442Z,16.25
2023-02-18T20:42:53.512Z,7.82
2023-02-18T20:45:22.432Z,7.65
2023-02-18T20:47:50.013Z,6.20
2023-02-18T20:50:21.318Z,6.20
2023-02-18T20:52:48.853Z,7.40
2023-02-18T20:55:16.385Z,8.95
2023-02-18T20:57:43.897Z,9.43
2023-02-18T21:00:11.903Z,12.65
2023-02-18T21:02:40.112Z,6.75
2023-02-18T21:05:07.852Z,9.98
2023-02-18T21:07:35.370Z,10.73
2023-02-18T21:10:04.273Z,5.75
2023-02-18T21:12:32.023Z,9.60
2023-02-18T21:14:59.436Z,7.15
2023-02-18T21:17:26.905Z,5.57
2023-02-18T21:19:54.620Z,6.00
2023-02-18T21:22:22.105Z,5.15
2023-02-18T21:24:51.401Z,3.63
2023-02-18T21:27:18.823Z,2.90
2023-02-18T21:29:46.908Z,3.75
2023-02-18T21:32:14.593Z,8.10
2023-02-18T21:34:45.004Z,4.53
2023-02-18T21:37:12.841Z,7.53
2023-02-18T21:39:40.504Z,8.38
2023-02-18T21:42:08.470Z,6.13
2023-02-18T21:44:42.438Z,7.88
2023-02-18T21:47:11.064Z,5.00
2023-02-18T21:49:38.993Z,5.75
2023-02-18T21:52:09.787Z,8.75
2023-02-18T21:54:39.952Z,4.00
2023-02-18T21:57:15.530Z,10.38
2023-02-18T21:59:43.718Z,3.00
2023-02-18T22:02:15.726Z,5.32
2023-02-18T22:04:43.362Z,7.40
2023-02-18T22:07:11.187Z,3.65
2023-02-18T22:09:39.148Z,5.55
2023-02-18T22:12:07.031Z,5.25
2023-02-18T22:14:36.347Z,5.93
2023-02-18T22:17:04.711Z,8.85
2023-02-18T22:19:32.919Z,8.55
2023-02-18T22:22:02.739Z,12.32
2023-02-18T22:24:35.567Z,4.90
2023-02-18T22:27:03.082Z,4.85
2023-02-18T22:29:31.327Z,5.45
2023-02-18T22:31:59.219Z,7.22
2023-02-18T22:34:26.873Z,5.32
2023-02-18T22:36:54.282Z,6.97
2023-02-18T22:39:22.053Z,4.95
2023-02-18T22:41:50.043Z,5.53
2023-02-18T22:44:18.139Z,4.85
2023-02-18T22:46:45.723Z,9.95
2023-02-18T22:49:13.938Z,5.03
2023-02-18T22:51:42.839Z,4.97
2023-02-18T22:54:16.001Z,7.15
2023-02-18T22:56:43.689Z,4.80
2023-02-18T22:59:12.226Z,6.50
2023-02-18T23:01:41.413Z,5.60
2023-02-18T23:04:10.885Z,7.55
2023-02-18T23:06:39.202Z,4.13
2023-02-18T23:09:07.415Z,6.40
2023-02-18T23:11:35.452Z,2.17
2023-02-18T23:14:18.298Z,4.60
2023-02-18T23:17:09.281Z,7.85
2023-02-18T23:19:37.122Z,2.77
2023-02-18T23:22:04.988Z,8.13
2023-02-18T23:24:34.571Z,3.55
2023-02-18T23:27:02.464Z,4.00
2023-02-18T23:29:30.142Z,3.58
2023-02-18T23:31:57.651Z,8.80
2023-02-18T23:34:25.994Z,6.80
2023-02-18T23:36:54.405Z,5.18
2023-02-18T23:39:22.851Z,4.68
2023-02-18T23:41:50.562Z,3.80
2023-02-18T23:44:20.011Z,3.95
2023-02-18T23:46:47.963Z,6.28
2023-02-18T23:49:20.011Z,6.80
2023-02-18T23:51:47.627Z,2.85
2023-02-18T23:54:15.192Z,10.05
2023-02-18T23:56:42.717Z,4.75
2023-02-18T23:59:10.726Z,5.82
